Terminal Aerodrome Forecast
Issued by NWS

Home | Current Version | Previous Version | Text Only | Print | Product List | Glossary On
Versions: 1 2 3 4 5 6 7 8 9 10 11 12
000
FTUS43 KJKL 251700
TAFSJS
TAF
KSJS 251740Z 2518/2618 24008G15KT P6SM SKC
     FM260500 VRB03KT P6SM VCSH OVC050
     FM260700 VRB03KT 3SM -SN BR OVC025
     FM261000 VRB03KT 1SM -SN BR SCT008 OVC015
     FM261400 VRB05KT P6SM SCT015 BKN030=

USA.gov is the U.S. government's official web portal to all federal, state and local government web resources and services.